createdAt,value
2023-03-01T00:01:17.129Z,2.96
2023-03-01T00:03:45.169Z,2.96
2023-03-01T00:06:13.374Z,2.95
2023-03-01T00:08:41.318Z,2.97
2023-03-01T00:11:12.156Z,2.98
2023-03-01T00:13:40.243Z,2.95
2023-03-01T00:16:10.793Z,2.92
2023-03-01T00:18:40.007Z,2.83
2023-03-01T00:21:08.204Z,2.85
2023-03-01T00:23:36.626Z,2.85
2023-03-01T00:26:08.361Z,2.84
2023-03-01T00:28:37.614Z,2.84
2023-03-01T00:31:06.393Z,2.78
2023-03-01T00:33:34.324Z,2.81
2023-03-01T00:36:04.078Z,2.82
2023-03-01T00:38:32.026Z,2.80
2023-03-01T00:41:05.493Z,2.77
2023-03-01T00:43:37.567Z,2.77
2023-03-01T00:46:07.429Z,2.77
2023-03-01T00:48:35.610Z,2.77
2023-03-01T00:51:09.571Z,2.79
2023-03-01T00:53:38.197Z,2.72
2023-03-01T00:56:08.018Z,2.64
2023-03-01T00:58:36.677Z,2.61
2023-03-01T01:01:18.056Z,2.60
2023-03-01T01:03:48.102Z,2.65
2023-03-01T01:06:19.446Z,2.60
2023-03-01T01:08:47.384Z,2.41
2023-03-01T01:11:16.040Z,2.36
2023-03-01T01:13:45.497Z,2.21
2023-03-01T01:16:13.902Z,2.41
2023-03-01T01:18:41.832Z,2.47
2023-03-01T01:21:13.406Z,2.56
2023-03-01T01:23:44.752Z,2.70
2023-03-01T01:26:16.434Z,2.78
2023-03-01T01:28:44.309Z,2.84
2023-03-01T01:31:12.215Z,2.87
2023-03-01T01:33:40.086Z,2.89
2023-03-01T01:36:09.038Z,2.90
2023-03-01T01:38:37.736Z,2.87
2023-03-01T01:41:08.199Z,2.87
2023-03-01T01:43:38.318Z,2.84
2023-03-01T01:46:08.335Z,2.81
2023-03-01T01:48:42.356Z,2.77
2023-03-01T01:51:15.086Z,2.73
2023-03-01T01:53:45.977Z,2.66
2023-03-01T01:56:17.729Z,2.50
2023-03-01T01:58:46.767Z,2.34
2023-03-01T02:01:14.669Z,2.30
2023-03-01T02:03:46.758Z,2.28
2023-03-01T02:06:20.107Z,2.36
2023-03-01T02:08:50.679Z,2.53
2023-03-01T02:11:20.717Z,2.58
2023-03-01T02:13:50.628Z,2.64
2023-03-01T02:16:19.472Z,2.70
2023-03-01T02:18:47.572Z,2.71
2023-03-01T02:21:26.255Z,2.66
2023-03-01T02:23:56.525Z,2.49
2023-03-01T02:26:34.838Z,2.70
2023-03-01T02:29:06.571Z,2.81
2023-03-01T02:31:42.843Z,2.90
2023-03-01T02:34:16.143Z,3.01
2023-03-01T02:36:49.038Z,2.94
2023-03-01T02:39:27.613Z,2.81
2023-03-01T02:41:56.803Z,2.69
2023-03-01T02:44:26.013Z,2.84
2023-03-01T02:46:57.675Z,2.92
2023-03-01T02:49:29.011Z,2.97
2023-03-01T02:52:35.668Z,2.96
2023-03-01T02:55:08.388Z,2.96
2023-03-01T02:57:38.930Z,2.95
2023-03-01T03:00:19.997Z,2.95
2023-03-01T03:02:50.056Z,3.00
2023-03-01T03:05:25.438Z,2.96
2023-03-01T03:07:56.439Z,2.93
2023-03-01T03:10:29.206Z,2.94
2023-03-01T03:12:58.963Z,2.97
2023-03-01T03:15:29.997Z,2.94
2023-03-01T03:17:59.355Z,2.83
2023-03-01T03:20:29.473Z,2.77
2023-03-01T03:23:00.078Z,2.71
2023-03-01T03:25:29.731Z,2.69
2023-03-01T03:27:58.906Z,2.74
2023-03-01T03:30:30.482Z,2.80
2023-03-01T03:32:59.605Z,2.79
2023-03-01T03:35:31.267Z,2.76
2023-03-01T03:38:03.539Z,2.87
2023-03-01T03:40:33.146Z,2.91
2023-03-01T03:43:01.049Z,2.90
2023-03-01T03:45:30.355Z,2.84
2023-03-01T03:47:58.290Z,2.84
2023-03-01T03:50:26.173Z,2.84
2023-03-01T03:52:54.322Z,2.92
2023-03-01T03:55:22.470Z,2.94
2023-03-01T03:57:52.596Z,2.95
2023-03-01T04:00:22.724Z,2.97
2023-03-01T04:02:57.408Z,3.01
2023-03-01T04:05:25.816Z,3.02
2023-03-01T04:08:01.963Z,2.93
2023-03-01T04:10:31.186Z,2.92
2023-03-01T04:12:59.268Z,2.84
2023-03-01T04:15:28.245Z,2.72
2023-03-01T04:17:57.774Z,2.69
2023-03-01T04:20:27.741Z,2.59
2023-03-01T04:23:00.376Z,2.61
2023-03-01T04:25:28.360Z,2.66
2023-03-01T04:27:56.167Z,2.78
2023-03-01T04:30:26.349Z,2.83
2023-03-01T04:32:54.182Z,2.86
2023-03-01T04:35:23.548Z,2.87
2023-03-01T04:37:51.887Z,2.83
2023-03-01T04:40:19.908Z,2.74
2023-03-01T04:42:48.296Z,2.73
2023-03-01T04:45:16.333Z,2.72
2023-03-01T04:47:46.879Z,2.74
2023-03-01T04:50:16.783Z,2.77
2023-03-01T04:52:46.841Z,2.88
2023-03-01T04:55:15.285Z,2.88
2023-03-01T04:57:43.173Z,2.84
2023-03-01T05:00:21.904Z,2.83
2023-03-01T05:02:54.148Z,2.76
2023-03-01T05:05:27.954Z,2.72
2023-03-01T05:07:59.957Z,2.66
2023-03-01T05:10:31.111Z,2.68
2023-03-01T05:12:59.332Z,2.73
2023-03-01T05:15:28.309Z,2.73
2023-03-01T05:17:59.524Z,2.79
2023-03-01T05:20:27.830Z,2.88
2023-03-01T05:22:59.519Z,2.92
2023-03-01T05:25:27.626Z,2.89
2023-03-01T05:27:55.497Z,2.90
2023-03-01T05:30:23.513Z,2.98
2023-03-01T05:32:56.678Z,3.07
2023-03-01T05:35:25.587Z,3.13
2023-03-01T05:37:53.653Z,3.09
2023-03-01T05:40:25.193Z,2.99
2023-03-01T05:42:55.786Z,2.87
2023-03-01T05:45:25.378Z,2.80
2023-03-01T05:47:53.872Z,2.76
2023-03-01T05:50:24.140Z,2.59
2023-03-01T05:52:53.562Z,2.73
2023-03-01T05:55:23.625Z,2.71
2023-03-01T05:57:52.110Z,2.75
2023-03-01T06:00:23.128Z,2.76
2023-03-01T06:02:51.268Z,2.80
2023-03-01T06:05:19.956Z,2.80
2023-03-01T06:07:47.946Z,2.87
2023-03-01T06:10:16.609Z,2.96
2023-03-01T06:12:45.983Z,3.09
2023-03-01T06:15:15.819Z,3.09
2023-03-01T06:17:45.426Z,3.15
2023-03-01T06:20:16.348Z,3.22
2023-03-01T06:22:45.060Z,3.25
2023-03-01T06:25:14.431Z,3.37
2023-03-01T06:27:42.435Z,3.31
2023-03-01T06:30:14.963Z,3.25
2023-03-01T06:32:43.857Z,3.25
2023-03-01T06:35:13.346Z,3.30
2023-03-01T06:37:41.618Z,3.39
2023-03-01T06:40:12.562Z,3.48
2023-03-01T06:42:42.299Z,3.56
2023-03-01T06:45:12.963Z,3.52
2023-03-01T06:47:40.847Z,3.58
2023-03-01T06:50:10.116Z,3.57
2023-03-01T06:52:38.089Z,3.57
2023-03-01T06:55:07.251Z,3.60
2023-03-01T06:57:35.196Z,3.62
2023-03-01T07:00:03.488Z,3.60
2023-03-01T07:02:33.097Z,3.55
2023-03-01T07:05:00.925Z,3.61
2023-03-01T07:07:28.810Z,3.79
2023-03-01T07:09:56.696Z,3.84
2023-03-01T07:12:24.559Z,3.91
2023-03-01T07:14:52.450Z,3.92
2023-03-01T07:17:20.466Z,4.02
2023-03-01T07:19:49.858Z,4.12
2023-03-01T07:22:17.755Z,4.35
2023-03-01T07:24:45.837Z,4.52
2023-03-01T07:27:13.729Z,4.57
2023-03-01T07:29:41.722Z,4.44
2023-03-01T07:32:09.707Z,4.48
2023-03-01T07:34:37.550Z,4.57
2023-03-01T07:37:06.725Z,4.46
2023-03-01T07:39:34.619Z,4.49
2023-03-01T07:42:02.464Z,4.65
2023-03-01T07:44:30.344Z,4.77
2023-03-01T07:46:59.111Z,4.94
2023-03-01T07:49:28.313Z,5.10
2023-03-01T07:51:56.254Z,5.27
2023-03-01T07:54:25.436Z,5.39
2023-03-01T07:56:53.276Z,5.45
2023-03-01T07:59:21.168Z,5.52
2023-03-01T08:01:49.083Z,5.48
2023-03-01T08:04:17.031Z,5.41
2023-03-01T08:06:45.020Z,5.35
2023-03-01T08:09:12.871Z,5.39
2023-03-01T08:11:42.116Z,5.42
2023-03-01T08:14:11.367Z,5.47
2023-03-01T08:16:39.429Z,5.51
2023-03-01T08:19:07.578Z,5.47
2023-03-01T08:21:36.473Z,5.51
2023-03-01T08:24:05.244Z,5.53
2023-03-01T08:26:33.374Z,5.55
2023-03-01T08:29:03.143Z,5.57
2023-03-01T08:31:33.358Z,5.55
2023-03-01T08:34:04.076Z,5.42
2023-03-01T08:36:34.277Z,5.17
2023-03-01T08:39:02.855Z,4.98
2023-03-01T08:41:30.938Z,4.87
2023-03-01T08:44:00.460Z,4.79
2023-03-01T08:46:31.427Z,4.69
2023-03-01T08:48:59.669Z,4.67
2023-03-01T08:51:28.227Z,4.66
2023-03-01T08:53:56.094Z,4.63
2023-03-01T08:56:23.936Z,4.67
2023-03-01T08:58:51.772Z,4.74
2023-03-01T09:01:21.316Z,4.82
2023-03-01T09:03:50.640Z,4.90
2023-03-01T09:06:18.759Z,4.95
2023-03-01T09:08:48.256Z,4.87
2023-03-01T09:11:18.934Z,5.00
2023-03-01T09:13:47.534Z,5.04
2023-03-01T09:16:17.611Z,5.06
2023-03-01T09:18:45.862Z,5.10
2023-03-01T09:21:18.322Z,5.17
2023-03-01T09:23:49.306Z,5.22
2023-03-01T09:26:20.121Z,5.19
2023-03-01T09:28:48.781Z,5.20
2023-03-01T09:31:18.865Z,5.35
2023-03-01T09:33:49.158Z,5.49
2023-03-01T09:36:20.899Z,5.61
2023-03-01T09:38:49.408Z,5.85
2023-03-01T09:41:33.186Z,6.05
2023-03-01T09:44:05.846Z,6.17
2023-03-01T09:46:42.797Z,6.36
2023-03-01T09:49:14.270Z,6.53
2023-03-01T09:51:46.325Z,6.69
2023-03-01T09:54:14.259Z,6.83
2023-03-01T09:56:48.026Z,6.92
2023-03-01T09:59:25.239Z,7.02
2023-03-01T10:02:01.268Z,7.03
2023-03-01T10:04:41.295Z,7.09
2023-03-01T10:07:23.819Z,7.11
2023-03-01T10:09:51.764Z,7.10
2023-03-01T10:12:23.946Z,7.14
2023-03-01T10:14:59.722Z,7.21
2023-03-01T10:17:32.666Z,7.31
2023-03-01T10:20:17.504Z,7.44
2023-03-01T10:22:51.500Z,7.42
2023-03-01T10:25:32.955Z,7.51
2023-03-01T10:28:07.499Z,7.52
2023-03-01T10:30:39.562Z,7.58
2023-03-01T10:33:18.586Z,7.61
2023-03-01T10:35:46.526Z,7.71
2023-03-01T10:38:17.309Z,7.83
2023-03-01T10:40:57.986Z,7.83
2023-03-01T10:43:27.607Z,7.75
2023-03-01T10:45:55.607Z,7.76
2023-03-01T10:48:27.118Z,7.80
2023-03-01T10:51:07.933Z,7.91
2023-03-01T10:53:42.427Z,7.96
2023-03-01T10:56:13.092Z,8.08
2023-03-01T10:58:42.635Z,8.20
2023-03-01T11:01:29.976Z,8.16
2023-03-01T11:04:12.915Z,8.23
2023-03-01T11:06:42.321Z,8.29
2023-03-01T11:09:20.420Z,8.38
2023-03-01T11:11:53.710Z,8.44
2023-03-01T11:14:27.190Z,8.47
2023-03-01T11:17:01.857Z,8.53
2023-03-01T11:19:29.822Z,8.54
2023-03-01T11:22:03.878Z,8.54
2023-03-01T11:24:41.724Z,8.59
2023-03-01T11:27:19.341Z,8.65
2023-03-01T11:29:52.100Z,8.71
2023-03-01T11:32:23.246Z,8.63
2023-03-01T11:34:56.834Z,8.61
2023-03-01T11:37:35.743Z,8.57
2023-03-01T11:40:14.634Z,8.58
2023-03-01T11:42:57.074Z,8.57
2023-03-01T11:45:26.968Z,8.64
2023-03-01T11:48:14.096Z,8.77
2023-03-01T11:50:44.178Z,8.79
2023-03-01T11:53:30.906Z,8.85
2023-03-01T11:56:16.343Z,8.90
2023-03-01T11:59:00.580Z,8.98
2023-03-01T12:01:46.316Z,9.07
2023-03-01T12:04:38.716Z,9.13
2023-03-01T12:07:12.717Z,9.14
2023-03-01T12:09:50.249Z,9.10
2023-03-01T12:12:46.714Z,9.07
2023-03-01T12:15:31.465Z,9.11
2023-03-01T12:18:20.600Z,9.12
2023-03-01T12:20:56.951Z,9.18
2023-03-01T12:23:47.560Z,9.19
2023-03-01T12:26:33.110Z,9.26
2023-03-01T12:29:33.614Z,9.23
2023-03-01T12:32:42.427Z,9.17
2023-03-01T12:35:30.082Z,9.13
2023-03-01T12:38:08.485Z,9.16
2023-03-01T12:41:04.365Z,9.28
2023-03-01T12:43:43.466Z,9.40
2023-03-01T12:46:25.862Z,9.49
2023-03-01T12:49:04.015Z,9.57
2023-03-01T12:51:35.759Z,9.58
2023-03-01T12:54:13.798Z,9.61
2023-03-01T12:56:42.224Z,9.64
2023-03-01T12:59:17.299Z,9.68
2023-03-01T13:01:54.148Z,9.67
2023-03-01T13:04:39.732Z,9.62
2023-03-01T13:07:21.408Z,9.60
2023-03-01T13:10:02.401Z,9.56
2023-03-01T13:12:51.770Z,9.51
2023-03-01T13:15:35.036Z,9.52
2023-03-01T13:18:06.738Z,9.52
2023-03-01T13:20:48.999Z,9.54
2023-03-01T13:23:27.807Z,9.57
2023-03-01T13:26:04.787Z,9.71
2023-03-01T13:28:51.587Z,9.87
2023-03-01T13:32:02.748Z,10.01
2023-03-01T13:35:05.997Z,10.23
2023-03-01T13:37:36.452Z,10.34
2023-03-01T13:40:28.126Z,10.46
2023-03-01T13:43:05.728Z,10.55
2023-03-01T13:45:41.170Z,10.67
2023-03-01T13:48:13.102Z,10.83
2023-03-01T13:50:49.650Z,10.93
2023-03-01T13:53:21.004Z,11.00
2023-03-01T13:55:52.936Z,11.10
2023-03-01T13:58:24.750Z,11.16
2023-03-01T14:00:58.940Z,11.22
2023-03-01T14:03:27.458Z,11.29
2023-03-01T14:06:15.217Z,11.38
2023-03-01T14:08:45.734Z,11.52
2023-03-01T14:11:40.942Z,11.55
2023-03-01T14:14:30.118Z,11.65
2023-03-01T14:17:10.613Z,11.74
2023-03-01T14:19:38.724Z,11.80
2023-03-01T14:22:20.361Z,11.86
2023-03-01T14:24:50.714Z,11.97
2023-03-01T14:27:19.231Z,12.09
2023-03-01T14:29:56.759Z,12.16
2023-03-01T14:32:27.348Z,12.20
2023-03-01T14:34:56.121Z,12.20
2023-03-01T14:37:28.071Z,12.21
2023-03-01T14:39:57.789Z,12.31
2023-03-01T14:42:29.170Z,12.30
2023-03-01T14:44:59.567Z,12.28
2023-03-01T14:47:30.664Z,12.46
2023-03-01T14:50:01.531Z,12.63
2023-03-01T14:52:36.935Z,12.57
2023-03-01T14:55:07.174Z,12.76
2023-03-01T14:57:35.324Z,12.79
2023-03-01T15:00:06.206Z,12.93
2023-03-01T15:02:36.106Z,12.95
2023-03-01T15:05:08.628Z,12.77
2023-03-01T15:07:42.509Z,12.65
2023-03-01T15:10:21.468Z,12.68
2023-03-01T15:12:49.827Z,12.67
2023-03-01T15:15:40.403Z,12.48
2023-03-01T15:18:17.945Z,12.25
2023-03-01T15:20:46.569Z,12.14
2023-03-01T15:23:23.515Z,12.03
2023-03-01T15:25:57.331Z,11.98
2023-03-01T15:28:27.348Z,11.93
2023-03-01T15:30:59.410Z,11.77
2023-03-01T15:33:38.915Z,11.70
2023-03-01T15:36:35.225Z,11.63
2023-03-01T15:39:07.193Z,11.52
2023-03-01T15:41:47.432Z,11.48
2023-03-01T15:44:19.966Z,11.42
2023-03-01T15:46:50.000Z,11.37
2023-03-01T15:49:33.019Z,11.29
2023-03-01T15:52:01.109Z,11.27
2023-03-01T15:54:31.376Z,11.19
2023-03-01T15:56:59.491Z,11.13
2023-03-01T15:59:27.377Z,10.99
2023-03-01T16:01:55.268Z,10.81
2023-03-01T16:04:24.126Z,10.65
2023-03-01T16:06:56.117Z,10.58
2023-03-01T16:09:25.316Z,10.41
2023-03-01T16:11:55.459Z,10.28
2023-03-01T16:14:23.426Z,10.15
2023-03-01T16:16:51.486Z,9.96
2023-03-01T16:19:19.489Z,9.80
2023-03-01T16:21:50.814Z,9.64
2023-03-01T16:24:18.813Z,9.51
2023-03-01T16:26:46.930Z,9.38
2023-03-01T16:29:17.228Z,9.26
2023-03-01T16:31:45.206Z,9.14
2023-03-01T16:34:13.849Z,9.00
2023-03-01T16:36:42.015Z,8.94
2023-03-01T16:39:11.396Z,8.85
2023-03-01T16:41:39.236Z,8.82
2023-03-01T16:44:07.173Z,8.72
2023-03-01T16:46:36.490Z,8.63
2023-03-01T16:49:04.851Z,8.55
2023-03-01T16:51:35.709Z,8.48
2023-03-01T16:54:05.491Z,8.41
2023-03-01T16:56:35.213Z,8.35
2023-03-01T16:59:05.712Z,8.30
2023-03-01T17:01:38.589Z,8.21
2023-03-01T17:04:06.941Z,8.19
2023-03-01T17:06:34.847Z,8.11
2023-03-01T17:09:02.737Z,8.05
2023-03-01T17:11:31.058Z,7.98
2023-03-01T17:13:59.168Z,7.91
2023-03-01T17:16:27.802Z,7.92
2023-03-01T17:18:57.585Z,7.88
2023-03-01T17:21:25.701Z,7.84
2023-03-01T17:23:57.423Z,7.80
2023-03-01T17:26:25.297Z,7.76
2023-03-01T17:28:53.197Z,7.72
2023-03-01T17:31:21.411Z,7.67
2023-03-01T17:33:50.111Z,7.64
2023-03-01T17:36:19.793Z,7.59
2023-03-01T17:38:47.830Z,7.61
2023-03-01T17:41:17.827Z,7.53
2023-03-01T17:43:45.701Z,7.42
2023-03-01T17:46:13.800Z,7.37
2023-03-01T17:48:41.646Z,7.28
2023-03-01T17:51:11.256Z,7.22
2023-03-01T17:53:40.616Z,7.12
2023-03-01T17:56:10.095Z,7.12
2023-03-01T17:58:39.322Z,7.13
2023-03-01T18:01:12.462Z,7.04
2023-03-01T18:03:41.071Z,7.12
2023-03-01T18:06:14.405Z,7.12
2023-03-01T18:08:45.292Z,7.11
2023-03-01T18:11:13.497Z,7.10
2023-03-01T18:13:41.654Z,7.07
2023-03-01T18:16:11.888Z,7.08
2023-03-01T18:18:39.788Z,7.04
2023-03-01T18:21:08.137Z,6.99
2023-03-01T18:23:37.008Z,6.93
2023-03-01T18:26:08.788Z,6.93
2023-03-01T18:28:37.361Z,6.86
2023-03-01T18:31:08.512Z,6.84
2023-03-01T18:33:36.586Z,6.81
2023-03-01T18:36:05.309Z,6.74
2023-03-01T18:38:33.714Z,6.66
2023-03-01T18:41:01.602Z,6.66
2023-03-01T18:43:32.806Z,6.60
2023-03-01T18:46:01.568Z,6.55
2023-03-01T18:48:30.068Z,6.43
2023-03-01T18:50:58.051Z,6.36
2023-03-01T18:53:26.013Z,6.34
2023-03-01T18:55:53.908Z,6.33
2023-03-01T18:58:21.754Z,6.36
2023-03-01T19:00:51.027Z,6.38
2023-03-01T19:03:18.860Z,6.37
2023-03-01T19:05:47.134Z,6.36
2023-03-01T19:08:15.054Z,6.36
2023-03-01T19:10:43.079Z,6.35
2023-03-01T19:13:11.191Z,6.31
2023-03-01T19:15:39.136Z,6.30
2023-03-01T19:18:09.641Z,6.31
2023-03-01T19:20:39.431Z,6.31
2023-03-01T19:23:08.059Z,6.26
2023-03-01T19:25:36.395Z,6.23
2023-03-01T19:28:04.590Z,6.18
2023-03-01T19:30:32.449Z,6.18
2023-03-01T19:33:00.403Z,6.07
2023-03-01T19:35:29.856Z,6.22
2023-03-01T19:37:57.777Z,6.19
2023-03-01T19:40:25.770Z,6.15
2023-03-01T19:42:53.620Z,6.07
2023-03-01T19:45:31.900Z,5.99
2023-03-01T19:48:01.067Z,6.03
2023-03-01T19:50:30.374Z,6.01
2023-03-01T19:52:58.378Z,5.98
2023-03-01T19:55:26.673Z,5.96
2023-03-01T19:57:54.600Z,5.94
2023-03-01T20:00:23.252Z,5.93
2023-03-01T20:02:51.221Z,5.85
2023-03-01T20:05:19.304Z,5.85
2023-03-01T20:07:48.647Z,5.86
2023-03-01T20:10:16.956Z,5.81
2023-03-01T20:12:45.015Z,5.79
2023-03-01T20:15:13.003Z,5.79
2023-03-01T20:17:40.900Z,5.77
2023-03-01T20:20:09.861Z,5.77
2023-03-01T20:22:37.838Z,5.69
2023-03-01T20:25:08.630Z,5.65
2023-03-01T20:27:36.591Z,5.62
2023-03-01T20:30:05.031Z,5.55
2023-03-01T20:32:33.061Z,5.46
2023-03-01T20:35:01.063Z,5.44
2023-03-01T20:37:28.981Z,5.42
2023-03-01T20:39:56.915Z,5.41
2023-03-01T20:42:26.169Z,5.39
2023-03-01T20:44:54.249Z,5.39
2023-03-01T20:47:23.139Z,5.33
2023-03-01T20:49:52.649Z,5.33
2023-03-01T20:52:20.546Z,5.30
2023-03-01T20:54:48.662Z,5.25
2023-03-01T20:57:16.584Z,5.23
2023-03-01T20:59:48.526Z,5.12
2023-03-01T21:02:16.881Z,5.03
2023-03-01T21:04:44.754Z,5.01
2023-03-01T21:07:12.561Z,4.99
2023-03-01T21:09:41.910Z,4.99
2023-03-01T21:12:10.276Z,4.89
2023-03-01T21:14:42.487Z,4.98
2023-03-01T21:17:13.632Z,5.02
2023-03-01T21:19:43.810Z,5.11
2023-03-01T21:22:11.884Z,5.14
2023-03-01T21:24:39.976Z,5.13
2023-03-01T21:27:07.875Z,5.14
2023-03-01T21:29:37.935Z,5.07
2023-03-01T21:32:06.755Z,5.07
2023-03-01T21:34:37.061Z,5.00
2023-03-01T21:37:06.001Z,4.93
2023-03-01T21:39:34.351Z,4.87
2023-03-01T21:42:04.072Z,4.89
2023-03-01T21:44:33.628Z,4.86
2023-03-01T21:47:01.642Z,4.88
2023-03-01T21:49:29.647Z,4.80
2023-03-01T21:51:58.892Z,4.74
2023-03-01T21:54:26.966Z,4.74
2023-03-01T21:56:54.941Z,4.81
2023-03-01T21:59:24.639Z,4.84
2023-03-01T22:01:53.042Z,4.86
2023-03-01T22:04:23.098Z,4.84
2023-03-01T22:06:54.299Z,4.85
2023-03-01T22:09:24.463Z,4.84
2023-03-01T22:11:58.315Z,4.81
2023-03-01T22:14:26.641Z,4.78
2023-03-01T22:16:54.691Z,4.74
2023-03-01T22:19:23.049Z,4.68
2023-03-01T22:21:52.863Z,4.67
2023-03-01T22:24:25.101Z,4.63
2023-03-01T22:26:54.345Z,4.61
2023-03-01T22:29:24.325Z,4.58
2023-03-01T22:31:52.958Z,4.45
2023-03-01T22:34:21.446Z,4.32
2023-03-01T22:36:49.654Z,4.22
2023-03-01T22:39:19.987Z,4.17
2023-03-01T22:41:50.695Z,4.16
2023-03-01T22:44:20.672Z,4.20
2023-03-01T22:46:48.999Z,4.23
2023-03-01T22:49:17.705Z,4.25
2023-03-01T22:51:47.402Z,4.27
2023-03-01T22:54:16.170Z,4.13
2023-03-01T22:56:44.418Z,4.18
2023-03-01T22:59:15.151Z,4.14
2023-03-01T23:01:47.619Z,4.18
2023-03-01T23:04:16.402Z,4.19
2023-03-01T23:06:51.646Z,4.15
2023-03-01T23:09:21.122Z,4.24
2023-03-01T23:11:48.965Z,4.37
2023-03-01T23:14:18.284Z,4.45
2023-03-01T23:16:46.612Z,4.50
2023-03-01T23:19:16.408Z,4.48
2023-03-01T23:21:48.476Z,4.36
2023-03-01T23:24:17.606Z,4.24
2023-03-01T23:26:45.781Z,4.19
2023-03-01T23:29:13.850Z,4.15
2023-03-01T23:31:42.996Z,4.12
2023-03-01T23:34:10.885Z,4.10
2023-03-01T23:36:39.171Z,4.08
2023-03-01T23:39:07.667Z,4.01
2023-03-01T23:41:35.962Z,4.11
2023-03-01T23:44:04.610Z,4.13
2023-03-01T23:46:35.551Z,4.11
2023-03-01T23:49:05.142Z,4.10
2023-03-01T23:51:33.010Z,4.07
2023-03-01T23:54:05.459Z,3.96
2023-03-01T23:56:35.954Z,4.00
2023-03-01T23:59:08.981Z,4.01
